createdAt,value
2018-05-17T00:00:56.330Z,1006.79
2018-05-17T00:01:56.318Z,1006.81
2018-05-17T00:02:56.304Z,1006.82
2018-05-17T00:03:56.293Z,1006.84
2018-05-17T00:04:56.278Z,1006.84
2018-05-17T00:05:56.264Z,1006.85
2018-05-17T00:06:56.253Z,1006.88
2018-05-17T00:07:56.242Z,1006.87
2018-05-17T00:08:56.226Z,1006.90
2018-05-17T00:09:56.217Z,1006.90
2018-05-17T00:10:56.198Z,1006.90
2018-05-17T00:11:56.185Z,1006.86
2018-05-17T00:12:56.180Z,1006.92
2018-05-17T00:13:56.163Z,1006.91
2018-05-17T00:14:56.149Z,1006.94
2018-05-17T00:15:56.134Z,1006.91
2018-05-17T00:16:56.120Z,1006.92
2018-05-17T00:17:56.108Z,1006.93
2018-05-17T00:18:56.095Z,1006.92
2018-05-17T00:19:56.080Z,1006.91
2018-05-17T00:20:56.072Z,1006.89
2018-05-17T00:21:56.053Z,1006.92
2018-05-17T00:22:56.043Z,1006.92
2018-05-17T00:23:56.027Z,1006.91
2018-05-17T00:24:56.016Z,1006.93
2018-05-17T00:25:56.001Z,1006.91
2018-05-17T00:26:55.993Z,1006.89
2018-05-17T00:27:55.981Z,1006.88
2018-05-17T00:28:55.962Z,1006.92
2018-05-17T00:29:55.951Z,1006.91
2018-05-17T00:30:55.940Z,1006.90
2018-05-17T00:31:55.925Z,1006.91
2018-05-17T00:32:55.910Z,1006.92
2018-05-17T00:33:55.899Z,1006.94
2018-05-17T00:34:55.883Z,1006.90
2018-05-17T00:35:55.875Z,1006.90
2018-05-17T00:36:55.855Z,1006.90
2018-05-17T00:37:55.842Z,1006.90
2018-05-17T00:38:55.829Z,1006.86
2018-05-17T00:39:55.816Z,1006.86
2018-05-17T00:40:55.803Z,1006.85
2018-05-17T00:41:55.800Z,1006.84
2018-05-17T00:42:55.785Z,1006.85
2018-05-17T00:43:55.764Z,1006.80
2018-05-17T00:44:55.751Z,1006.82
2018-05-17T00:45:55.736Z,1006.86
2018-05-17T00:46:55.730Z,1006.84
2018-05-17T00:47:55.709Z,1006.85
2018-05-17T00:48:55.696Z,1006.84
2018-05-17T00:49:55.684Z,1006.85
2018-05-17T00:50:55.672Z,1006.86
2018-05-17T00:51:55.658Z,1006.81
2018-05-17T00:52:55.643Z,1006.82
2018-05-17T00:53:55.632Z,1006.83
2018-05-17T00:54:55.616Z,1006.85
2018-05-17T00:55:55.603Z,1006.86
2018-05-17T00:56:55.649Z,1006.84
2018-05-17T00:57:55.577Z,1006.88
2018-05-17T00:58:55.567Z,1006.91
2018-05-17T00:59:55.553Z,1006.88
2018-05-17T01:00:55.536Z,1006.88
2018-05-17T01:01:55.524Z,1006.87
2018-05-17T01:02:55.509Z,1006.81
2018-05-17T01:03:55.495Z,1006.79
2018-05-17T01:04:55.482Z,1006.80
2018-05-17T01:05:55.471Z,1006.75
2018-05-17T01:06:55.457Z,1006.75
2018-05-17T01:07:55.443Z,1006.73
2018-05-17T01:08:55.436Z,1006.69
2018-05-17T01:09:55.422Z,1006.71
2018-05-17T01:10:55.403Z,1006.67
2018-05-17T01:11:55.390Z,1006.69
2018-05-17T01:12:55.379Z,1006.68
2018-05-17T01:13:55.361Z,1006.69
2018-05-17T01:14:55.348Z,1006.69
2018-05-17T01:15:55.336Z,1006.67
2018-05-17T01:16:55.323Z,1006.67
2018-05-17T01:17:55.308Z,1006.67
2018-05-17T01:18:55.301Z,1006.67
2018-05-17T01:19:55.280Z,1006.65
2018-05-17T01:20:55.268Z,1006.65
2018-05-17T01:21:55.260Z,1006.62
2018-05-17T01:22:55.243Z,1006.62
2018-05-17T01:23:55.227Z,1006.65
2018-05-17T01:24:55.219Z,1006.66
2018-05-17T01:25:55.199Z,1006.67
2018-05-17T01:26:55.188Z,1006.69
2018-05-17T01:27:55.173Z,1006.70
2018-05-17T01:28:55.159Z,1006.67
2018-05-17T01:29:55.147Z,1006.75
2018-05-17T01:30:55.184Z,1006.75
2018-05-17T01:31:55.121Z,1006.70
2018-05-17T01:32:55.105Z,1006.66
2018-05-17T01:33:55.091Z,1006.68
2018-05-17T01:34:55.090Z,1006.60
2018-05-17T01:35:55.067Z,1006.69
2018-05-17T01:36:55.054Z,1006.62
2018-05-17T01:37:55.055Z,1006.59
2018-05-17T01:38:55.028Z,1006.65
2018-05-17T01:39:55.011Z,1006.64
2018-05-17T01:40:54.998Z,1006.60
2018-05-17T01:41:54.986Z,1006.65
2018-05-17T01:42:54.971Z,1006.66
2018-05-17T01:43:54.958Z,1006.66
2018-05-17T01:44:54.946Z,1006.63
2018-05-17T01:45:54.933Z,1006.68
2018-05-17T01:46:54.917Z,1006.67
2018-05-17T01:47:54.902Z,1006.69
2018-05-17T01:48:54.891Z,1006.69
2018-05-17T01:49:54.875Z,1006.63
2018-05-17T01:50:54.866Z,1006.68
2018-05-17T01:51:54.853Z,1006.68
2018-05-17T01:52:54.838Z,1006.62
2018-05-17T01:53:54.820Z,1006.67
2018-05-17T01:54:54.807Z,1006.69
2018-05-17T01:55:54.795Z,1006.68
2018-05-17T01:56:54.776Z,1006.68
2018-05-17T01:57:54.764Z,1006.70
2018-05-17T01:58:54.757Z,1006.73
2018-05-17T01:59:54.738Z,1006.73
2018-05-17T02:00:54.733Z,1006.73
2018-05-17T02:01:54.712Z,1006.75
2018-05-17T02:02:54.698Z,1006.67
2018-05-17T02:03:54.683Z,1006.67
2018-05-17T02:04:54.671Z,1006.70
2018-05-17T02:05:54.659Z,1006.68
2018-05-17T02:06:54.644Z,1006.66
2018-05-17T02:07:54.629Z,1006.65
2018-05-17T02:08:54.616Z,1006.71
2018-05-17T02:09:54.602Z,1006.66
2018-05-17T02:10:54.588Z,1006.69
2018-05-17T02:11:54.581Z,1006.67
2018-05-17T02:12:54.566Z,1006.69
2018-05-17T02:13:54.546Z,1006.69
2018-05-17T02:14:54.588Z,1006.66
2018-05-17T02:15:54.518Z,1006.69
2018-05-17T02:16:54.504Z,1006.63
2018-05-17T02:17:54.491Z,1006.65
2018-05-17T02:18:54.488Z,1006.60
2018-05-17T02:19:54.463Z,1006.65
2018-05-17T02:20:54.451Z,1006.59
2018-05-17T02:21:54.440Z,1006.60
2018-05-17T02:22:54.427Z,1006.60
2018-05-17T02:23:54.407Z,1006.59
2018-05-17T02:24:54.397Z,1006.62
2018-05-17T02:25:54.382Z,1006.62
2018-05-17T02:26:54.371Z,1006.60
2018-05-17T02:27:54.356Z,1006.61
2018-05-17T02:28:54.339Z,1006.63
2018-05-17T02:29:54.325Z,1006.62
2018-05-17T02:30:54.312Z,1006.62
2018-05-17T02:31:54.300Z,1006.62
2018-05-17T02:32:54.285Z,1006.63
2018-05-17T02:33:54.271Z,1006.67
2018-05-17T02:34:54.255Z,1006.67
2018-05-17T02:35:54.245Z,1006.66
2018-05-17T02:36:54.232Z,1006.66
2018-05-17T02:37:54.213Z,1006.66
2018-05-17T02:38:54.204Z,1006.67
2018-05-17T02:39:54.185Z,1006.64
2018-05-17T02:40:54.174Z,1006.67
2018-05-17T02:41:54.161Z,1006.66
2018-05-17T02:42:54.159Z,1006.65
2018-05-17T02:43:54.130Z,1006.70
2018-05-17T02:44:54.117Z,1006.70
2018-05-17T02:45:54.104Z,1006.70
2018-05-17T02:46:54.092Z,1006.74
2018-05-17T02:47:54.076Z,1006.73
2018-05-17T02:48:54.062Z,1006.72
2018-05-17T02:49:54.047Z,1006.74
2018-05-17T02:50:54.035Z,1006.73
2018-05-17T02:51:54.021Z,1006.73
2018-05-17T02:52:54.006Z,1006.71
2018-05-17T02:53:53.991Z,1006.70
2018-05-17T02:54:53.979Z,1006.70
2018-05-17T02:55:53.963Z,1006.70
2018-05-17T02:56:53.950Z,1006.70
2018-05-17T02:57:53.937Z,1006.67
2018-05-17T02:58:53.922Z,1006.64
2018-05-17T02:59:53.910Z,1006.63
2018-05-17T03:00:53.901Z,1006.66
2018-05-17T03:01:53.881Z,1006.63
2018-05-17T03:02:53.869Z,1006.66
2018-05-17T03:03:53.851Z,1006.66
2018-05-17T03:04:53.836Z,1006.68
2018-05-17T03:05:53.824Z,1006.70
2018-05-17T03:06:53.811Z,1006.68
2018-05-17T03:07:53.802Z,1006.71
2018-05-17T03:08:53.786Z,1006.69
2018-05-17T03:09:53.771Z,1006.71
2018-05-17T03:10:53.755Z,1006.70
2018-05-17T03:11:53.741Z,1006.70
2018-05-17T03:12:53.729Z,1006.70
2018-05-17T03:13:53.710Z,1006.71
2018-05-17T03:14:53.697Z,1006.73
2018-05-17T03:15:53.682Z,1006.73
2018-05-17T03:16:53.669Z,1006.75
2018-05-17T03:17:53.658Z,1006.77
2018-05-17T03:18:53.640Z,1006.79
2018-05-17T03:19:53.625Z,1006.75
2018-05-17T03:20:53.614Z,1006.77
2018-05-17T03:21:53.603Z,1006.80
2018-05-17T03:22:53.585Z,1006.80
2018-05-17T03:23:53.568Z,1006.78
2018-05-17T03:24:53.560Z,1006.81
2018-05-17T03:25:53.542Z,1006.81
2018-05-17T03:26:53.525Z,1006.85
2018-05-17T03:27:53.515Z,1006.82
2018-05-17T03:28:53.499Z,1006.81
2018-05-17T03:29:53.485Z,1006.82
2018-05-17T03:30:53.470Z,1006.80
2018-05-17T03:31:53.454Z,1006.81
2018-05-17T03:32:53.441Z,1006.86
2018-05-17T03:33:53.432Z,1006.86
2018-05-17T03:34:53.418Z,1006.85
2018-05-17T03:35:53.400Z,1006.91
2018-05-17T03:36:53.389Z,1006.92
2018-05-17T03:37:53.374Z,1006.93
2018-05-17T03:38:53.359Z,1006.93
2018-05-17T03:39:53.340Z,1006.91
2018-05-17T03:40:53.328Z,1006.90
2018-05-17T03:41:53.314Z,1006.93
2018-05-17T03:42:53.302Z,1006.95
2018-05-17T03:43:53.282Z,1006.97
2018-05-17T03:44:53.271Z,1006.99
2018-05-17T03:45:53.256Z,1007.00
2018-05-17T03:46:53.243Z,1006.96
2018-05-17T03:47:53.233Z,1006.96
2018-05-17T03:48:53.219Z,1006.96
2018-05-17T03:49:53.201Z,1006.92
2018-05-17T03:50:53.188Z,1006.95
2018-05-17T03:51:53.171Z,1006.91
2018-05-17T03:52:53.158Z,1006.90
2018-05-17T03:53:53.145Z,1006.93
2018-05-17T03:54:53.131Z,1006.95
2018-05-17T03:55:53.122Z,1006.93
2018-05-17T03:56:53.101Z,1006.96
2018-05-17T03:57:53.091Z,1006.97
2018-05-17T03:58:53.074Z,1006.98
2018-05-17T03:59:53.057Z,1006.97
2018-05-17T04:00:53.044Z,1007.00
2018-05-17T04:01:53.029Z,1006.97
2018-05-17T04:02:53.016Z,1007.02
2018-05-17T04:03:53.003Z,1007.06
2018-05-17T04:04:52.991Z,1007.06
2018-05-17T04:05:52.974Z,1007.10
2018-05-17T04:06:52.962Z,1007.10
2018-05-17T04:07:52.948Z,1007.11
2018-05-17T04:08:52.930Z,1007.15
2018-05-17T04:09:52.916Z,1007.17
2018-05-17T04:10:52.910Z,1007.11
2018-05-17T04:11:52.891Z,1007.11
2018-05-17T04:12:52.874Z,1007.14
2018-05-17T04:13:52.983Z,1007.12
2018-05-17T04:14:52.851Z,1007.09
2018-05-17T04:15:52.835Z,1007.15
2018-05-17T04:16:52.818Z,1007.12
2018-05-17T04:17:52.806Z,1007.13
2018-05-17T04:18:52.791Z,1007.09
2018-05-17T04:19:52.776Z,1007.18
2018-05-17T04:20:52.775Z,1007.12
2018-05-17T04:21:52.750Z,1007.18
2018-05-17T04:22:52.732Z,1007.17
2018-05-17T04:23:52.717Z,1007.18
2018-05-17T04:24:52.707Z,1007.20
2018-05-17T04:25:52.698Z,1007.19
2018-05-17T04:26:52.676Z,1007.22
2018-05-17T04:27:52.662Z,1007.25
2018-05-17T04:28:52.651Z,1007.25
2018-05-17T04:29:52.633Z,1007.26
2018-05-17T04:30:52.621Z,1007.25
2018-05-17T04:31:52.604Z,1007.29
2018-05-17T04:32:52.595Z,1007.27
2018-05-17T04:33:52.574Z,1007.24
2018-05-17T04:34:52.567Z,1007.24
2018-05-17T04:35:52.549Z,1007.26
2018-05-17T04:36:52.534Z,1007.27
2018-05-17T04:37:52.519Z,1007.26
2018-05-17T04:38:52.505Z,1007.32
2018-05-17T04:39:52.490Z,1007.31
2018-05-17T04:40:52.480Z,1007.28
2018-05-17T04:41:52.466Z,1007.28
2018-05-17T04:42:52.449Z,1007.27
2018-05-17T04:43:52.432Z,1007.26
2018-05-17T04:44:52.420Z,1007.26
2018-05-17T04:45:52.406Z,1007.24
2018-05-17T04:46:52.392Z,1007.24
2018-05-17T04:47:52.377Z,1007.25
2018-05-17T04:48:52.364Z,1007.24
2018-05-17T04:49:52.351Z,1007.22
2018-05-17T04:50:52.336Z,1007.20
2018-05-17T04:51:52.319Z,1007.19
2018-05-17T04:52:52.307Z,1007.24
2018-05-17T04:53:52.294Z,1007.26
2018-05-17T04:54:52.287Z,1007.25
2018-05-17T04:55:52.263Z,1007.27
2018-05-17T04:56:52.251Z,1007.29
2018-05-17T04:57:52.238Z,1007.28
2018-05-17T04:58:52.230Z,1007.29
2018-05-17T04:59:52.208Z,1007.31
2018-05-17T05:00:52.195Z,1007.29
2018-05-17T05:01:52.179Z,1007.32
2018-05-17T05:02:52.199Z,1007.31
2018-05-17T05:03:52.152Z,1007.37
2018-05-17T05:04:52.142Z,1007.35
2018-05-17T05:05:52.126Z,1007.35
2018-05-17T05:06:52.109Z,1007.38
2018-05-17T05:07:52.093Z,1007.33
2018-05-17T05:08:52.081Z,1007.37
2018-05-17T05:09:52.075Z,1007.35
2018-05-17T05:10:52.056Z,1007.37
2018-05-17T05:11:52.042Z,1007.33
2018-05-17T05:12:52.024Z,1007.35
2018-05-17T05:13:52.013Z,1007.34
2018-05-17T05:14:51.995Z,1007.33
2018-05-17T05:15:51.980Z,1007.33
2018-05-17T05:16:51.967Z,1007.36
2018-05-17T05:17:51.956Z,1007.37
2018-05-17T05:18:51.943Z,1007.36
2018-05-17T05:19:51.925Z,1007.37
2018-05-17T05:20:51.913Z,1007.40
2018-05-17T05:21:51.895Z,1007.41
2018-05-17T05:22:51.886Z,1007.37
2018-05-17T05:23:51.873Z,1007.39
2018-05-17T05:24:51.855Z,1007.38
2018-05-17T05:25:51.844Z,1007.42
2018-05-17T05:26:51.829Z,1007.42
2018-05-17T05:27:51.813Z,1007.43
2018-05-17T05:28:51.799Z,1007.49
2018-05-17T05:29:51.785Z,1007.43
2018-05-17T05:30:51.771Z,1007.46
2018-05-17T05:31:51.756Z,1007.48
2018-05-17T05:32:51.743Z,1007.48
2018-05-17T05:33:51.738Z,1007.46
2018-05-17T05:34:51.724Z,1007.52
2018-05-17T05:35:51.700Z,1007.52
2018-05-17T05:36:51.691Z,1007.48
2018-05-17T05:37:51.681Z,1007.54
2018-05-17T05:38:51.659Z,1007.53
2018-05-17T05:39:51.643Z,1007.59
2018-05-17T05:40:51.673Z,1007.59
2018-05-17T05:41:51.618Z,1007.59
2018-05-17T05:42:51.604Z,1007.60
2018-05-17T05:43:51.592Z,1007.57
2018-05-17T05:44:51.574Z,1007.60
2018-05-17T05:45:51.562Z,1007.56
2018-05-17T05:46:51.549Z,1007.57
2018-05-17T05:47:51.533Z,1007.53
2018-05-17T05:48:51.524Z,1007.57
2018-05-17T05:49:51.507Z,1007.52
2018-05-17T05:50:51.494Z,1007.56
2018-05-17T05:51:51.479Z,1007.57
2018-05-17T05:52:51.463Z,1007.57
2018-05-17T05:53:51.456Z,1007.58
2018-05-17T05:54:51.446Z,1007.60
2018-05-17T05:55:51.424Z,1007.57
2018-05-17T05:56:51.411Z,1007.63
2018-05-17T05:57:51.406Z,1007.62
2018-05-17T05:58:51.383Z,1007.65
2018-05-17T05:59:51.374Z,1007.62
2018-05-17T06:00:51.358Z,1007.66
2018-05-17T06:01:51.347Z,1007.68
2018-05-17T06:02:51.329Z,1007.70
2018-05-17T06:03:51.314Z,1007.75
2018-05-17T06:04:51.301Z,1007.73
2018-05-17T06:05:51.286Z,1007.74
2018-05-17T06:06:51.274Z,1007.76
2018-05-17T06:07:51.266Z,1007.76
2018-05-17T06:08:51.245Z,1007.76
2018-05-17T06:09:51.236Z,1007.73
2018-05-17T06:10:51.225Z,1007.79
2018-05-17T06:11:51.207Z,1007.83
2018-05-17T06:12:51.195Z,1007.84
2018-05-17T06:13:51.180Z,1007.84
2018-05-17T06:14:51.173Z,1007.80
2018-05-17T06:15:51.153Z,1007.82
2018-05-17T06:16:51.142Z,1007.77
2018-05-17T06:17:51.130Z,1007.82
2018-05-17T06:18:51.115Z,1007.80
2018-05-17T06:19:51.102Z,1007.83
2018-05-17T06:20:51.090Z,1007.83
2018-05-17T06:21:51.077Z,1007.83
2018-05-17T06:22:51.065Z,1007.87
2018-05-17T06:23:51.066Z,1007.87
2018-05-17T06:24:51.034Z,1007.86
2018-05-17T06:25:51.021Z,1007.88
2018-05-17T06:26:51.058Z,1007.92
2018-05-17T06:27:51.002Z,1007.87
2018-05-17T06:28:50.983Z,1007.86
2018-05-17T06:29:50.969Z,1007.88
2018-05-17T06:30:50.958Z,1007.91
2018-05-17T06:31:50.950Z,1007.95
2018-05-17T06:32:50.931Z,1007.93
2018-05-17T06:33:50.918Z,1007.96
2018-05-17T06:34:50.904Z,1007.97
2018-05-17T06:35:50.899Z,1007.96
2018-05-17T06:36:50.877Z,1007.97
2018-05-17T06:37:50.866Z,1008.00
2018-05-17T06:38:50.854Z,1008.03
2018-05-17T06:39:50.840Z,1008.02
2018-05-17T06:40:50.827Z,1008.02
2018-05-17T06:41:50.814Z,1008.04
2018-05-17T06:42:50.802Z,1008.05
2018-05-17T06:43:50.836Z,1008.07
2018-05-17T06:44:50.779Z,1008.02
2018-05-17T06:45:50.766Z,1008.05
2018-05-17T06:46:50.754Z,1008.08
2018-05-17T06:47:50.738Z,1008.11
2018-05-17T06:48:50.727Z,1008.08
2018-05-17T06:49:50.717Z,1008.08
2018-05-17T06:50:50.701Z,1008.13
2018-05-17T06:51:50.696Z,1008.14
2018-05-17T06:52:50.676Z,1008.13
2018-05-17T06:53:50.663Z,1008.12
2018-05-17T06:54:50.651Z,1008.13
2018-05-17T06:55:50.636Z,1008.10
2018-05-17T06:56:50.629Z,1008.17
2018-05-17T06:57:50.614Z,1008.11
2018-05-17T06:58:50.601Z,1008.15
2018-05-17T06:59:50.588Z,1008.19
2018-05-17T07:00:50.594Z,1008.24
2018-05-17T07:01:50.568Z,1008.21
2018-05-17T07:02:50.552Z,1008.22
2018-05-17T07:03:50.540Z,1008.27
2018-05-17T07:04:50.532Z,1008.26
2018-05-17T07:05:50.525Z,1008.25
2018-05-17T07:06:50.505Z,1008.27
2018-05-17T07:07:50.495Z,1008.22
2018-05-17T07:08:50.479Z,1008.24
2018-05-17T07:09:50.479Z,1008.24
2018-05-17T07:10:50.458Z,1008.27
2018-05-17T07:11:50.445Z,1008.25
2018-05-17T07:12:50.432Z,1008.30
2018-05-17T07:13:50.435Z,1008.27
2018-05-17T07:14:50.464Z,1008.30
2018-05-17T07:15:50.401Z,1008.31
2018-05-17T07:16:50.388Z,1008.32
2018-05-17T07:17:50.387Z,1008.33
2018-05-17T07:18:50.365Z,1008.40
2018-05-17T07:19:50.353Z,1008.38
2018-05-17T07:20:50.339Z,1008.42
2018-05-17T07:21:50.330Z,1008.42
2018-05-17T07:22:50.323Z,1008.47
2018-05-17T07:23:50.308Z,1008.47
2018-05-17T07:24:50.300Z,1008.46
2018-05-17T07:25:50.285Z,1008.50
2018-05-17T07:26:50.275Z,1008.51
2018-05-17T07:27:50.266Z,1008.50
2018-05-17T07:28:50.250Z,1008.56
2018-05-17T07:29:50.333Z,1008.57
2018-05-17T07:30:50.231Z,1008.60
2018-05-17T07:31:50.218Z,1008.59
2018-05-17T07:32:50.211Z,1008.63
2018-05-17T07:33:50.196Z,1008.63
2018-05-17T07:34:50.188Z,1008.67
2018-05-17T07:35:50.173Z,1008.74
2018-05-17T07:36:50.167Z,1008.72
2018-05-17T07:37:50.153Z,1008.76
2018-05-17T07:38:50.144Z,1008.89
2018-05-17T07:39:50.132Z,1008.93
2018-05-17T07:40:50.121Z,1009.04
2018-05-17T07:41:50.113Z,1009.04
2018-05-17T07:42:50.107Z,1008.90
2018-05-17T07:43:50.096Z,1009.02
2018-05-17T07:44:50.081Z,1009.34
2018-05-17T07:45:50.079Z,1009.76
2018-05-17T07:46:50.187Z,1011.26
2018-05-17T07:47:50.057Z,1012.88
2018-05-17T07:48:50.042Z,1015.07
2018-05-17T07:49:50.034Z,1018.31
2018-05-17T07:50:50.029Z,1020.47
2018-05-17T07:51:50.016Z,1021.34
2018-05-17T07:52:50.009Z,1020.19
2018-05-17T07:53:50.004Z,1019.13
2018-05-17T07:54:49.992Z,1019.11
2018-05-17T07:55:49.979Z,1018.61
2018-05-17T07:56:49.971Z,1018.14
2018-05-17T07:57:49.963Z,1018.34
2018-05-17T07:58:49.963Z,1018.65
2018-05-17T07:59:49.949Z,1018.59
2018-05-17T08:00:49.943Z,1019.36
2018-05-17T08:01:49.960Z,1019.02
2018-05-17T08:02:49.928Z,1018.52
2018-05-17T08:03:49.923Z,1018.42
2018-05-17T08:04:49.917Z,1017.27
2018-05-17T08:05:49.912Z,1015.63
2018-05-17T08:06:49.909Z,1014.98
2018-05-17T08:07:49.900Z,1014.80
2018-05-17T08:08:49.899Z,1014.44
2018-05-17T08:09:49.892Z,1014.23
2018-05-17T08:10:49.887Z,1013.07
2018-05-17T08:11:49.884Z,1013.34
2018-05-17T08:12:49.878Z,1013.01
2018-05-17T08:13:49.875Z,1012.98
2018-05-17T08:14:49.872Z,1012.73
2018-05-17T08:15:49.867Z,1012.27
2018-05-17T08:16:49.865Z,1011.62
2018-05-17T08:17:49.863Z,1011.15
2018-05-17T08:18:49.859Z,1010.76
2018-05-17T08:19:49.856Z,1010.33
2018-05-17T08:20:49.853Z,1009.88
2018-05-17T08:21:49.851Z,1009.72
2018-05-17T08:22:49.848Z,1009.77
2018-05-17T08:23:49.844Z,1009.82
2018-05-17T08:24:49.842Z,1010.02
2018-05-17T08:25:49.841Z,1009.82
2018-05-17T08:26:49.842Z,1009.68
2018-05-17T08:27:49.834Z,1009.74
2018-05-17T08:28:49.834Z,1009.70
2018-05-17T08:29:49.830Z,1009.63
2018-05-17T08:30:49.828Z,1009.56
2018-05-17T08:31:49.824Z,1009.52
2018-05-17T08:32:49.822Z,1009.60
2018-05-17T08:33:49.820Z,1009.64
2018-05-17T08:34:49.818Z,1009.57
2018-05-17T08:35:49.819Z,1009.56
2018-05-17T08:36:49.949Z,1009.58
2018-05-17T08:37:49.813Z,1009.64
2018-05-17T08:38:49.810Z,1009.64
2018-05-17T08:39:49.807Z,1009.59
2018-05-17T08:40:49.807Z,1009.65
2018-05-17T08:41:49.806Z,1009.61
2018-05-17T08:42:49.802Z,1009.69
2018-05-17T08:43:49.809Z,1009.71
2018-05-17T08:44:49.803Z,1009.75
2018-05-17T08:45:49.799Z,1009.73
2018-05-17T08:46:49.797Z,1009.72
2018-05-17T08:47:49.796Z,1009.68
2018-05-17T08:48:49.798Z,1009.65
2018-05-17T08:49:49.795Z,1009.66
2018-05-17T08:50:49.794Z,1009.62
2018-05-17T08:51:49.792Z,1009.64
2018-05-17T08:52:49.791Z,1009.61
2018-05-17T08:53:49.792Z,1009.61
2018-05-17T08:54:49.796Z,1009.59
2018-05-17T08:55:49.789Z,1009.62
2018-05-17T08:56:49.792Z,1009.62
2018-05-17T08:57:49.788Z,1009.64
2018-05-17T08:58:49.789Z,1009.61
2018-05-17T08:59:49.817Z,1009.58
2018-05-17T09:00:49.789Z,1009.53
2018-05-17T09:01:49.789Z,1009.60
2018-05-17T09:02:49.789Z,1009.60
2018-05-17T09:03:49.839Z,1009.64
2018-05-17T09:04:49.787Z,1009.61
2018-05-17T09:05:49.787Z,1009.54
2018-05-17T09:06:49.789Z,1009.54
2018-05-17T09:07:49.787Z,1009.57
2018-05-17T09:08:49.789Z,1009.55
2018-05-17T09:09:49.787Z,1009.56
2018-05-17T09:10:49.787Z,1009.57
2018-05-17T09:11:49.788Z,1009.60
2018-05-17T09:12:49.788Z,1009.62
2018-05-17T09:13:49.876Z,1009.67
2018-05-17T09:14:49.789Z,1009.65
2018-05-17T09:15:49.790Z,1009.75
2018-05-17T09:16:49.787Z,1009.80
2018-05-17T09:17:49.789Z,1009.68
2018-05-17T09:18:49.789Z,1009.66
2018-05-17T09:19:49.790Z,1009.65
2018-05-17T09:20:49.789Z,1009.69
2018-05-17T09:21:49.794Z,1009.70
2018-05-17T09:22:49.790Z,1009.88
2018-05-17T09:23:49.790Z,1009.94
2018-05-17T09:24:49.794Z,1009.92
2018-05-17T09:25:49.792Z,1009.85
2018-05-17T09:26:49.790Z,1009.78
2018-05-17T09:27:49.792Z,1009.71
2018-05-17T09:28:49.792Z,1009.73
2018-05-17T09:29:49.794Z,1009.70
2018-05-17T09:30:49.792Z,1009.65
2018-05-17T09:31:49.794Z,1009.70
2018-05-17T09:32:49.793Z,1009.76
2018-05-17T09:33:49.796Z,1009.81
2018-05-17T09:34:49.794Z,1009.82
2018-05-17T09:35:49.812Z,1009.90
2018-05-17T09:36:49.800Z,1009.91
2018-05-17T09:37:49.798Z,1009.98
2018-05-17T09:38:49.811Z,1009.98
2018-05-17T09:39:49.800Z,1009.96
2018-05-17T09:40:49.801Z,1009.95
2018-05-17T09:41:49.807Z,1010.06
2018-05-17T09:42:49.800Z,1010.07
2018-05-17T09:43:49.799Z,1010.16
2018-05-17T09:44:49.850Z,1010.29
2018-05-17T09:45:49.801Z,1010.20
2018-05-17T09:46:49.802Z,1009.99
2018-05-17T09:47:49.801Z,1009.94
2018-05-17T09:48:49.804Z,1009.83
2018-05-17T09:49:49.802Z,1009.84
2018-05-17T09:50:49.804Z,1009.86
2018-05-17T09:51:49.804Z,1009.78
2018-05-17T09:52:49.806Z,1009.77
2018-05-17T09:53:49.821Z,1009.82
2018-05-17T09:54:49.812Z,1009.81
2018-05-17T09:55:49.805Z,1009.87
2018-05-17T09:56:49.807Z,1009.93
2018-05-17T09:57:49.807Z,1009.93
2018-05-17T09:58:49.809Z,1010.03
2018-05-17T09:59:49.807Z,1009.92
2018-05-17T10:00:49.811Z,1009.87
2018-05-17T10:01:49.808Z,1009.61
2018-05-17T10:02:49.810Z,1009.78
2018-05-17T10:03:49.809Z,1010.07
2018-05-17T10:04:49.815Z,1010.26
2018-05-17T10:05:49.809Z,1010.41
2018-05-17T10:06:49.808Z,1010.40
2018-05-17T10:07:49.809Z,1010.45
2018-05-17T10:08:49.841Z,1010.46
2018-05-17T10:09:49.811Z,1010.51
2018-05-17T10:10:49.818Z,1010.49
2018-05-17T10:11:49.809Z,1010.56
2018-05-17T10:12:49.813Z,1010.52
2018-05-17T10:13:49.810Z,1010.70
2018-05-17T10:14:49.811Z,1010.76
2018-05-17T10:15:49.813Z,1010.67
2018-05-17T10:16:49.811Z,1010.53
2018-05-17T10:17:49.811Z,1009.55
2018-05-17T10:18:49.813Z,1010.53
2018-05-17T10:19:49.812Z,1010.47
2018-05-17T10:20:49.819Z,1010.20
2018-05-17T10:21:49.894Z,1010.18
2018-05-17T10:22:49.814Z,1010.24
2018-05-17T10:23:49.816Z,1010.26
2018-05-17T10:24:49.814Z,1009.81
2018-05-17T10:25:49.822Z,1009.70
2018-05-17T10:26:49.814Z,1009.74
2018-05-17T10:27:49.817Z,1009.56
2018-05-17T10:28:49.816Z,1009.59
2018-05-17T10:29:49.816Z,1009.62
2018-05-17T10:30:49.816Z,1009.69
2018-05-17T10:31:49.816Z,1009.84
2018-05-17T10:32:49.816Z,1009.77
2018-05-17T10:33:49.816Z,1009.80
2018-05-17T10:34:49.815Z,1010.09
2018-05-17T10:35:49.816Z,1009.81
2018-05-17T10:36:49.816Z,1009.62
2018-05-17T10:37:49.816Z,1009.80
2018-05-17T10:38:49.816Z,1009.94
2018-05-17T10:39:49.816Z,1009.70
2018-05-17T10:40:49.817Z,1009.63
2018-05-17T10:41:49.815Z,1009.69
2018-05-17T10:42:49.820Z,1009.75
2018-05-17T10:43:49.814Z,1009.77
2018-05-17T10:44:49.816Z,1009.73
2018-05-17T10:45:49.820Z,1009.71
2018-05-17T10:46:49.814Z,1009.91
2018-05-17T10:47:49.812Z,1009.64
2018-05-17T10:48:49.829Z,1009.64
2018-05-17T10:49:49.812Z,1009.99
2018-05-17T10:50:49.813Z,1009.76
2018-05-17T10:51:49.811Z,1009.59
2018-05-17T10:52:49.813Z,1009.47
2018-05-17T10:53:49.814Z,1009.43
2018-05-17T10:54:49.809Z,1009.44
2018-05-17T10:55:49.810Z,1009.42
2018-05-17T10:56:49.808Z,1009.40
2018-05-17T10:57:49.818Z,1009.42
2018-05-17T10:58:49.808Z,1009.36
2018-05-17T10:59:49.815Z,1009.40
2018-05-17T11:00:49.806Z,1009.26
2018-05-17T11:01:49.805Z,1009.24
2018-05-17T11:02:49.804Z,1009.25
2018-05-17T11:03:49.802Z,1009.34
2018-05-17T11:04:49.806Z,1009.32
2018-05-17T11:05:49.800Z,1009.37
2018-05-17T11:06:49.799Z,1009.37
2018-05-17T11:07:49.798Z,1009.37
2018-05-17T11:08:49.796Z,1009.36
2018-05-17T11:09:49.794Z,1009.34
2018-05-17T11:10:49.793Z,1009.34
2018-05-17T11:11:49.791Z,1009.41
2018-05-17T11:12:49.802Z,1009.51
2018-05-17T11:13:49.788Z,1009.61
2018-05-17T11:14:49.786Z,1009.56
2018-05-17T11:15:49.784Z,1009.54
2018-05-17T11:16:49.782Z,1009.57
2018-05-17T11:17:49.778Z,1009.80
2018-05-17T11:18:49.778Z,1010.04
2018-05-17T11:19:49.776Z,1010.21
2018-05-17T11:20:49.774Z,1010.20
2018-05-17T11:21:49.781Z,1010.21
2018-05-17T11:22:49.774Z,1010.37
2018-05-17T11:23:49.768Z,1010.31
2018-05-17T11:24:49.768Z,1010.36
2018-05-17T11:25:49.771Z,1010.39
2018-05-17T11:26:49.775Z,1010.30
2018-05-17T11:27:49.763Z,1009.80
2018-05-17T11:28:49.761Z,1010.24
2018-05-17T11:29:49.767Z,1010.20
2018-05-17T11:30:49.761Z,1009.77
2018-05-17T11:31:49.761Z,1009.96
2018-05-17T11:32:49.758Z,1009.88
2018-05-17T11:33:49.761Z,1009.79
2018-05-17T11:34:49.758Z,1009.74
2018-05-17T11:35:49.759Z,1009.88
2018-05-17T11:36:49.760Z,1009.88
2018-05-17T11:37:49.760Z,1009.69
2018-05-17T11:38:49.757Z,1010.00
2018-05-17T11:39:49.757Z,1010.07
2018-05-17T11:40:49.757Z,1010.02
2018-05-17T11:41:49.756Z,1010.16
2018-05-17T11:42:49.756Z,1010.14
2018-05-17T11:43:49.755Z,1010.22
2018-05-17T11:44:49.755Z,1009.75
2018-05-17T11:45:49.759Z,1009.99
2018-05-17T11:46:49.757Z,1009.97
2018-05-17T11:47:49.758Z,1010.03
2018-05-17T11:48:49.758Z,1010.03
2018-05-17T11:49:49.757Z,1009.82
2018-05-17T11:50:49.758Z,1009.80
2018-05-17T11:51:49.757Z,1010.09
2018-05-17T11:52:49.760Z,1010.00
2018-05-17T11:53:49.760Z,1010.14
2018-05-17T11:54:49.766Z,1010.19
2018-05-17T11:55:49.766Z,1010.13
2018-05-17T11:56:49.763Z,1010.05
2018-05-17T11:57:49.760Z,1010.09
2018-05-17T11:58:49.771Z,1010.08
2018-05-17T11:59:49.761Z,1009.99
2018-05-17T12:00:49.773Z,1009.89
2018-05-17T12:01:49.765Z,1009.94
2018-05-17T12:02:49.766Z,1009.89
2018-05-17T12:03:49.767Z,1009.90
2018-05-17T12:04:49.775Z,1009.83
2018-05-17T12:05:49.817Z,1009.81